logo
Rechercher aéroport 
image banner adimage banner adimage banner ad
image banner ad

MMRCF - Aeropista De La Region Carbonifera

Situé à Sabinas, Mexico

ICAO - , IATA -

Données fournies par Airmate  

Information générale

Coordonnées: N27°58'28" W101°12'45"
Élévation : 1279 feet MSL.
Variation magnétique : 4° East
Voir autres Aéroports à Coahuila

Données opérationnelles

Special qualification required
Heure actuelle UTC:
Heure actuelle locale:
Météo à : - ( 0 km )
METAR: YPJT 171936Z AUTO 00000KT 5000 BR SCT002 BKN050 07/06 Q1020
Voir NOTAMs / SUP AIP / TFR affectant cet aéroport [VIEW]
Fréquences de communication: [VIEW]

Pistes:

Identifiant RWYQFULongueur (ft)Largeur (ft)SurfaceLDA (ft)
30303°590099ASPH
12123°590099ASPH

Coordonnées de l'aéroport

Adresse: Sabinas Mexico

Vue satellite de MMRCF